sensor_id;sensor_type;location;lat;lon;timestamp;P1;durP1;ratioP1;P2;durP2;ratioP2
47531;SDS011;33273;52.254;7.988;2023-05-19T00:00:17;10.23;;;6.30;;
47531;SDS011;33273;52.254;7.988;2023-05-19T00:02:43;9.80;;;5.68;;
47531;SDS011;33273;52.254;7.988;2023-05-19T00:07:37;8.90;;;5.85;;
47531;SDS011;33273;52.254;7.988;2023-05-19T00:10:04;10.90;;;6.40;;
47531;SDS011;33273;52.254;7.988;2023-05-19T00:14:58;10.88;;;5.97;;
47531;SDS011;33273;52.254;7.988;2023-05-19T00:17:24;10.43;;;7.30;;
47531;SDS011;33273;52.254;7.988;2023-05-19T00:19:51;9.85;;;5.78;;
47531;SDS011;33273;52.254;7.988;2023-05-19T00:22:18;9.18;;;6.55;;
47531;SDS011;33273;52.254;7.988;2023-05-19T00:24:45;9.75;;;6.47;;
47531;SDS011;33273;52.254;7.988;2023-05-19T00:27:11;8.80;;;6.30;;
47531;SDS011;33273;52.254;7.988;2023-05-19T00:29:37;13.52;;;6.10;;
47531;SDS011;33273;52.254;7.988;2023-05-19T00:32:03;11.13;;;6.38;;
47531;SDS011;33273;52.254;7.988;2023-05-19T00:36:56;11.70;;;5.97;;
47531;SDS011;33273;52.254;7.988;2023-05-19T00:39:21;11.03;;;6.57;;
47531;SDS011;33273;52.254;7.988;2023-05-19T00:41:47;10.40;;;6.17;;
47531;SDS011;33273;52.254;7.988;2023-05-19T00:44:15;10.00;;;6.07;;
47531;SDS011;33273;52.254;7.988;2023-05-19T00:49:07;10.70;;;6.20;;
47531;SDS011;33273;52.254;7.988;2023-05-19T00:51:33;13.00;;;7.80;;
47531;SDS011;33273;52.254;7.988;2023-05-19T00:54:00;9.43;;;6.15;;
47531;SDS011;33273;52.254;7.988;2023-05-19T00:56:25;10.13;;;6.30;;
47531;SDS011;33273;52.254;7.988;2023-05-19T00:58:51;10.32;;;6.45;;
47531;SDS011;33273;52.254;7.988;2023-05-19T01:01:18;10.57;;;6.05;;
47531;SDS011;33273;52.254;7.988;2023-05-19T01:03:45;7.68;;;6.03;;
47531;SDS011;33273;52.254;7.988;2023-05-19T01:06:12;9.40;;;6.00;;
47531;SDS011;33273;52.254;7.988;2023-05-19T01:08:39;11.25;;;6.63;;
47531;SDS011;33273;52.254;7.988;2023-05-19T01:11:05;13.15;;;6.15;;
47531;SDS011;33273;52.254;7.988;2023-05-19T01:13:32;9.43;;;6.20;;
47531;SDS011;33273;52.254;7.988;2023-05-19T01:16:00;11.63;;;7.22;;
47531;SDS011;33273;52.254;7.988;2023-05-19T01:18:49;12.18;;;6.60;;
47531;SDS011;33273;52.254;7.988;2023-05-19T01:24:15;13.15;;;6.95;;
47531;SDS011;33273;52.254;7.988;2023-05-19T01:32:32;10.23;;;6.35;;
47531;SDS011;33273;52.254;7.988;2023-05-19T01:35:00;8.98;;;6.32;;
47531;SDS011;33273;52.254;7.988;2023-05-19T01:37:29;11.30;;;6.40;;
47531;SDS011;33273;52.254;7.988;2023-05-19T01:39:56;11.10;;;7.00;;
47531;SDS011;33273;52.254;7.988;2023-05-19T01:42:22;11.35;;;7.47;;
47531;SDS011;33273;52.254;7.988;2023-05-19T01:44:49;9.52;;;7.00;;
47531;SDS011;33273;52.254;7.988;2023-05-19T01:49:42;11.57;;;6.22;;
47531;SDS011;33273;52.254;7.988;2023-05-19T01:52:08;11.93;;;7.43;;
47531;SDS011;33273;52.254;7.988;2023-05-19T01:54:34;10.60;;;6.23;;
47531;SDS011;33273;52.254;7.988;2023-05-19T02:00:10;9.82;;;6.88;;
47531;SDS011;33273;52.254;7.988;2023-05-19T02:05:19;10.93;;;6.97;;
47531;SDS011;33273;52.254;7.988;2023-05-19T02:08:07;11.07;;;7.38;;
47531;SDS011;33273;52.254;7.988;2023-05-19T02:10:48;12.00;;;6.90;;
47531;SDS011;33273;52.254;7.988;2023-05-19T02:13:17;11.88;;;7.28;;
47531;SDS011;33273;52.254;7.988;2023-05-19T02:15:48;11.75;;;6.60;;
47531;SDS011;33273;52.254;7.988;2023-05-19T02:18:16;10.43;;;7.10;;
47531;SDS011;33273;52.254;7.988;2023-05-19T02:20:49;13.00;;;6.90;;
47531;SDS011;33273;52.254;7.988;2023-05-19T02:23:15;12.32;;;7.40;;
47531;SDS011;33273;52.254;7.988;2023-05-19T02:25:41;10.40;;;6.60;;
47531;SDS011;33273;52.254;7.988;2023-05-19T02:28:07;14.30;;;7.82;;
47531;SDS011;33273;52.254;7.988;2023-05-19T02:30:33;13.57;;;7.57;;
47531;SDS011;33273;52.254;7.988;2023-05-19T02:32:59;13.83;;;7.97;;
47531;SDS011;33273;52.254;7.988;2023-05-19T02:35:24;14.77;;;6.97;;
47531;SDS011;33273;52.254;7.988;2023-05-19T02:37:51;10.80;;;6.78;;
47531;SDS011;33273;52.254;7.988;2023-05-19T02:42:44;11.50;;;6.75;;
47531;SDS011;33273;52.254;7.988;2023-05-19T02:45:10;14.63;;;7.10;;
47531;SDS011;33273;52.254;7.988;2023-05-19T02:47:39;11.73;;;7.72;;
47531;SDS011;33273;52.254;7.988;2023-05-19T02:50:06;12.93;;;7.85;;
47531;SDS011;33273;52.254;7.988;2023-05-19T02:52:32;13.40;;;8.18;;
47531;SDS011;33273;52.254;7.988;2023-05-19T02:54:58;10.97;;;6.63;;
47531;SDS011;33273;52.254;7.988;2023-05-19T02:57:24;12.10;;;7.40;;
47531;SDS011;33273;52.254;7.988;2023-05-19T02:59:53;13.13;;;7.35;;
47531;SDS011;33273;52.254;7.988;2023-05-19T03:02:19;10.90;;;7.25;;
47531;SDS011;33273;52.254;7.988;2023-05-19T03:04:45;12.35;;;8.10;;
47531;SDS011;33273;52.254;7.988;2023-05-19T03:07:11;10.97;;;7.60;;
47531;SDS011;33273;52.254;7.988;2023-05-19T03:09:40;10.75;;;6.30;;
47531;SDS011;33273;52.254;7.988;2023-05-19T03:12:06;13.17;;;7.17;;
47531;SDS011;33273;52.254;7.988;2023-05-19T03:14:36;16.65;;;7.20;;
47531;SDS011;33273;52.254;7.988;2023-05-19T03:17:02;10.63;;;7.00;;
47531;SDS011;33273;52.254;7.988;2023-05-19T03:19:31;12.07;;;8.20;;
47531;SDS011;33273;52.254;7.988;2023-05-19T03:21:57;11.57;;;7.30;;
47531;SDS011;33273;52.254;7.988;2023-05-19T03:24:23;14.85;;;7.10;;
47531;SDS011;33273;52.254;7.988;2023-05-19T03:26:49;12.47;;;7.07;;
47531;SDS011;33273;52.254;7.988;2023-05-19T03:29:15;12.95;;;7.75;;
47531;SDS011;33273;52.254;7.988;2023-05-19T03:31:44;13.63;;;7.85;;
47531;SDS011;33273;52.254;7.988;2023-05-19T03:34:13;12.70;;;7.65;;
47531;SDS011;33273;52.254;7.988;2023-05-19T03:36:39;10.68;;;7.78;;
47531;SDS011;33273;52.254;7.988;2023-05-19T03:39:09;11.05;;;7.55;;
47531;SDS011;33273;52.254;7.988;2023-05-19T03:41:35;14.27;;;8.30;;
47531;SDS011;33273;52.254;7.988;2023-05-19T03:44:02;12.02;;;7.88;;
47531;SDS011;33273;52.254;7.988;2023-05-19T03:46:28;14.65;;;8.25;;
47531;SDS011;33273;52.254;7.988;2023-05-19T03:49:06;12.82;;;7.63;;
47531;SDS011;33273;52.254;7.988;2023-05-19T03:51:55;9.65;;;6.75;;
47531;SDS011;33273;52.254;7.988;2023-05-19T03:54:32;11.23;;;7.03;;
47531;SDS011;33273;52.254;7.988;2023-05-19T03:56:58;14.85;;;8.25;;
47531;SDS011;33273;52.254;7.988;2023-05-19T03:59:23;11.67;;;7.40;;
47531;SDS011;33273;52.254;7.988;2023-05-19T04:01:50;12.07;;;7.15;;
47531;SDS011;33273;52.254;7.988;2023-05-19T04:06:43;15.85;;;8.70;;
47531;SDS011;33273;52.254;7.988;2023-05-19T04:09:10;12.77;;;7.10;;
47531;SDS011;33273;52.254;7.988;2023-05-19T04:11:38;12.98;;;7.88;;
47531;SDS011;33273;52.254;7.988;2023-05-19T04:14:04;11.63;;;7.47;;
47531;SDS011;33273;52.254;7.988;2023-05-19T04:16:31;11.15;;;7.18;;
47531;SDS011;33273;52.254;7.988;2023-05-19T04:18:57;12.15;;;7.22;;
47531;SDS011;33273;52.254;7.988;2023-05-19T04:21:23;11.18;;;7.40;;
47531;SDS011;33273;52.254;7.988;2023-05-19T04:23:49;12.30;;;7.87;;
47531;SDS011;33273;52.254;7.988;2023-05-19T04:26:15;14.60;;;7.53;;
47531;SDS011;33273;52.254;7.988;2023-05-19T04:31:12;10.35;;;6.93;;
47531;SDS011;33273;52.254;7.988;2023-05-19T04:33:38;12.27;;;7.00;;
47531;SDS011;33273;52.254;7.988;2023-05-19T04:36:06;11.82;;;7.30;;
47531;SDS011;33273;52.254;7.988;2023-05-19T04:38:38;12.57;;;7.63;;
47531;SDS011;33273;52.254;7.988;2023-05-19T04:41:06;12.77;;;7.43;;
47531;SDS011;33273;52.254;7.988;2023-05-19T04:43:35;9.57;;;6.75;;
47531;SDS011;33273;52.254;7.988;2023-05-19T04:46:06;9.18;;;6.03;;
47531;SDS011;33273;52.254;7.988;2023-05-19T04:48:34;9.82;;;6.85;;
47531;SDS011;33273;52.254;7.988;2023-05-19T04:51:00;10.55;;;6.63;;
47531;SDS011;33273;52.254;7.988;2023-05-19T04:53:28;8.75;;;6.15;;
47531;SDS011;33273;52.254;7.988;2023-05-19T04:55:54;8.02;;;6.18;;
47531;SDS011;33273;52.254;7.988;2023-05-19T04:58:24;9.95;;;6.50;;
47531;SDS011;33273;52.254;7.988;2023-05-19T05:00:51;11.70;;;7.15;;
47531;SDS011;33273;52.254;7.988;2023-05-19T05:03:20;7.90;;;6.32;;
47531;SDS011;33273;52.254;7.988;2023-05-19T05:05:50;7.45;;;5.70;;
47531;SDS011;33273;52.254;7.988;2023-05-19T05:08:17;9.15;;;6.43;;
47531;SDS011;33273;52.254;7.988;2023-05-19T05:10:49;9.07;;;5.68;;
47531;SDS011;33273;52.254;7.988;2023-05-19T05:13:20;12.30;;;6.03;;
47531;SDS011;33273;52.254;7.988;2023-05-19T05:15:47;12.20;;;6.30;;
47531;SDS011;33273;52.254;7.988;2023-05-19T05:18:18;12.02;;;5.78;;
47531;SDS011;33273;52.254;7.988;2023-05-19T05:20:45;8.55;;;6.28;;
47531;SDS011;33273;52.254;7.988;2023-05-19T05:23:12;9.25;;;6.05;;
47531;SDS011;33273;52.254;7.988;2023-05-19T05:25:42;7.70;;;5.88;;
47531;SDS011;33273;52.254;7.988;2023-05-19T05:28:10;11.48;;;5.80;;
47531;SDS011;33273;52.254;7.988;2023-05-19T05:30:36;9.48;;;5.38;;
47531;SDS011;33273;52.254;7.988;2023-05-19T05:33:05;9.10;;;5.90;;
47531;SDS011;33273;52.254;7.988;2023-05-19T05:35:35;8.73;;;5.80;;
47531;SDS011;33273;52.254;7.988;2023-05-19T05:38:04;8.07;;;5.68;;
47531;SDS011;33273;52.254;7.988;2023-05-19T05:40:31;9.02;;;5.88;;
47531;SDS011;33273;52.254;7.988;2023-05-19T05:42:57;10.10;;;5.05;;
47531;SDS011;33273;52.254;7.988;2023-05-19T05:45:29;10.55;;;5.05;;
47531;SDS011;33273;52.254;7.988;2023-05-19T05:47:59;7.18;;;4.35;;
47531;SDS011;33273;52.254;7.988;2023-05-19T05:50:26;10.75;;;5.30;;
47531;SDS011;33273;52.254;7.988;2023-05-19T05:52:53;10.40;;;4.50;;
47531;SDS011;33273;52.254;7.988;2023-05-19T05:55:23;9.38;;;5.20;;
47531;SDS011;33273;52.254;7.988;2023-05-19T05:57:51;7.97;;;4.40;;
47531;SDS011;33273;52.254;7.988;2023-05-19T06:00:18;6.65;;;4.15;;
47531;SDS011;33273;52.254;7.988;2023-05-19T06:02:51;10.65;;;5.22;;
47531;SDS011;33273;52.254;7.988;2023-05-19T06:05:18;8.52;;;4.65;;
47531;SDS011;33273;52.254;7.988;2023-05-19T06:07:45;10.45;;;4.82;;
47531;SDS011;33273;52.254;7.988;2023-05-19T06:10:17;9.07;;;4.55;;
47531;SDS011;33273;52.254;7.988;2023-05-19T06:12:43;8.00;;;4.35;;
47531;SDS011;33273;52.254;7.988;2023-05-19T06:15:10;8.25;;;4.63;;
47531;SDS011;33273;52.254;7.988;2023-05-19T06:17:46;9.00;;;4.50;;
47531;SDS011;33273;52.254;7.988;2023-05-19T06:20:14;13.00;;;4.22;;
47531;SDS011;33273;52.254;7.988;2023-05-19T06:22:40;9.13;;;3.95;;
47531;SDS011;33273;52.254;7.988;2023-05-19T06:25:07;7.75;;;4.20;;
47531;SDS011;33273;52.254;7.988;2023-05-19T06:27:34;9.70;;;4.68;;
47531;SDS011;33273;52.254;7.988;2023-05-19T06:30:01;6.68;;;3.90;;
47531;SDS011;33273;52.254;7.988;2023-05-19T06:32:32;8.40;;;4.78;;
47531;SDS011;33273;52.254;7.988;2023-05-19T06:34:59;10.35;;;4.30;;
47531;SDS011;33273;52.254;7.988;2023-05-19T06:37:25;7.15;;;4.28;;
47531;SDS011;33273;52.254;7.988;2023-05-19T06:39:52;7.15;;;3.97;;
47531;SDS011;33273;52.254;7.988;2023-05-19T06:42:19;11.43;;;3.92;;
47531;SDS011;33273;52.254;7.988;2023-05-19T06:45:06;7.53;;;4.45;;
47531;SDS011;33273;52.254;7.988;2023-05-19T06:47:32;11.93;;;4.22;;
47531;SDS011;33273;52.254;7.988;2023-05-19T06:49:58;6.22;;;3.63;;
47531;SDS011;33273;52.254;7.988;2023-05-19T06:52:28;7.55;;;3.90;;
47531;SDS011;33273;52.254;7.988;2023-05-19T06:54:55;10.90;;;3.70;;
47531;SDS011;33273;52.254;7.988;2023-05-19T06:59:48;8.43;;;3.80;;
47531;SDS011;33273;52.254;7.988;2023-05-19T07:02:14;7.15;;;3.80;;
47531;SDS011;33273;52.254;7.988;2023-05-19T07:04:41;7.93;;;4.25;;
47531;SDS011;33273;52.254;7.988;2023-05-19T07:07:08;8.15;;;3.72;;
47531;SDS011;33273;52.254;7.988;2023-05-19T07:09:35;8.77;;;3.78;;
47531;SDS011;33273;52.254;7.988;2023-05-19T07:12:02;7.35;;;3.50;;
47531;SDS011;33273;52.254;7.988;2023-05-19T07:14:29;10.75;;;4.55;;
47531;SDS011;33273;52.254;7.988;2023-05-19T07:16:55;10.25;;;3.88;;
47531;SDS011;33273;52.254;7.988;2023-05-19T07:19:24;7.13;;;3.85;;
47531;SDS011;33273;52.254;7.988;2023-05-19T07:21:51;7.93;;;3.70;;
47531;SDS011;33273;52.254;7.988;2023-05-19T07:24:20;9.88;;;4.32;;
47531;SDS011;33273;52.254;7.988;2023-05-19T07:26:47;16.85;;;5.20;;
47531;SDS011;33273;52.254;7.988;2023-05-19T07:29:13;9.73;;;4.63;;
47531;SDS011;33273;52.254;7.988;2023-05-19T07:31:39;10.57;;;4.15;;
47531;SDS011;33273;52.254;7.988;2023-05-19T07:34:05;7.93;;;3.70;;
47531;SDS011;33273;52.254;7.988;2023-05-19T07:36:33;6.53;;;4.18;;
47531;SDS011;33273;52.254;7.988;2023-05-19T07:38:59;8.00;;;4.05;;
47531;SDS011;33273;52.254;7.988;2023-05-19T07:41:26;9.50;;;3.33;;
47531;SDS011;33273;52.254;7.988;2023-05-19T07:43:52;7.38;;;3.00;;
47531;SDS011;33273;52.254;7.988;2023-05-19T07:46:20;7.43;;;3.45;;
47531;SDS011;33273;52.254;7.988;2023-05-19T07:48:46;7.25;;;3.78;;
47531;SDS011;33273;52.254;7.988;2023-05-19T07:51:12;9.93;;;4.13;;
47531;SDS011;33273;52.254;7.988;2023-05-19T07:53:38;8.32;;;3.78;;
47531;SDS011;33273;52.254;7.988;2023-05-19T07:56:04;11.60;;;3.97;;
47531;SDS011;33273;52.254;7.988;2023-05-19T07:58:31;8.00;;;3.22;;
47531;SDS011;33273;52.254;7.988;2023-05-19T08:00:58;7.07;;;3.33;;
47531;SDS011;33273;52.254;7.988;2023-05-19T08:03:26;7.28;;;3.72;;
47531;SDS011;33273;52.254;7.988;2023-05-19T08:05:55;9.00;;;3.35;;
47531;SDS011;33273;52.254;7.988;2023-05-19T08:08:20;5.38;;;3.30;;
47531;SDS011;33273;52.254;7.988;2023-05-19T08:10:48;7.72;;;3.30;;
47531;SDS011;33273;52.254;7.988;2023-05-19T08:13:14;8.13;;;3.90;;
47531;SDS011;33273;52.254;7.988;2023-05-19T08:15:41;6.13;;;3.55;;
47531;SDS011;33273;52.254;7.988;2023-05-19T08:18:07;9.50;;;4.15;;
47531;SDS011;33273;52.254;7.988;2023-05-19T08:20:33;11.10;;;3.65;;
47531;SDS011;33273;52.254;7.988;2023-05-19T08:22:59;7.80;;;3.60;;
47531;SDS011;33273;52.254;7.988;2023-05-19T08:25:25;6.40;;;3.42;;
47531;SDS011;33273;52.254;7.988;2023-05-19T08:27:51;6.60;;;3.20;;
47531;SDS011;33273;52.254;7.988;2023-05-19T08:30:17;8.93;;;3.17;;
47531;SDS011;33273;52.254;7.988;2023-05-19T08:32:43;4.82;;;2.80;;
47531;SDS011;33273;52.254;7.988;2023-05-19T08:35:09;8.93;;;3.25;;
47531;SDS011;33273;52.254;7.988;2023-05-19T08:37:35;8.30;;;3.17;;
47531;SDS011;33273;52.254;7.988;2023-05-19T08:40:03;5.63;;;3.40;;
47531;SDS011;33273;52.254;7.988;2023-05-19T08:42:29;7.55;;;3.78;;
47531;SDS011;33273;52.254;7.988;2023-05-19T08:44:59;8.13;;;3.17;;
47531;SDS011;33273;52.254;7.988;2023-05-19T08:47:30;5.88;;;3.00;;
47531;SDS011;33273;52.254;7.988;2023-05-19T08:49:59;7.00;;;3.33;;
47531;SDS011;33273;52.254;7.988;2023-05-19T08:52:50;8.60;;;3.00;;
47531;SDS011;33273;52.254;7.988;2023-05-19T08:58:11;9.02;;;3.25;;
47531;SDS011;33273;52.254;7.988;2023-05-19T09:00:38;8.38;;;2.58;;
47531;SDS011;33273;52.254;7.988;2023-05-19T09:03:04;9.02;;;2.30;;
47531;SDS011;33273;52.254;7.988;2023-05-19T09:07:59;4.93;;;2.78;;
47531;SDS011;33273;52.254;7.988;2023-05-19T09:10:29;6.75;;;2.88;;
47531;SDS011;33273;52.254;7.988;2023-05-19T09:12:55;6.05;;;2.67;;
47531;SDS011;33273;52.254;7.988;2023-05-19T09:15:23;9.10;;;3.20;;
47531;SDS011;33273;52.254;7.988;2023-05-19T09:18:02;11.48;;;3.30;;
47531;SDS011;33273;52.254;7.988;2023-05-19T09:20:39;6.63;;;2.65;;
47531;SDS011;33273;52.254;7.988;2023-05-19T09:23:11;6.75;;;2.80;;
47531;SDS011;33273;52.254;7.988;2023-05-19T09:25:46;6.88;;;2.97;;
47531;SDS011;33273;52.254;7.988;2023-05-19T09:28:25;7.15;;;2.20;;
47531;SDS011;33273;52.254;7.988;2023-05-19T09:31:03;4.70;;;1.60;;
47531;SDS011;33273;52.254;7.988;2023-05-19T09:33:34;4.90;;;2.13;;
47531;SDS011;33273;52.254;7.988;2023-05-19T09:36:02;6.07;;;2.40;;
47531;SDS011;33273;52.254;7.988;2023-05-19T09:38:30;5.55;;;2.30;;
47531;SDS011;33273;52.254;7.988;2023-05-19T09:40:58;4.57;;;2.00;;
47531;SDS011;33273;52.254;7.988;2023-05-19T09:43:29;4.43;;;2.03;;
47531;SDS011;33273;52.254;7.988;2023-05-19T09:48:34;7.38;;;2.05;;
47531;SDS011;33273;52.254;7.988;2023-05-19T09:51:01;7.47;;;2.95;;
47531;SDS011;33273;52.254;7.988;2023-05-19T09:53:30;7.60;;;2.47;;
47531;SDS011;33273;52.254;7.988;2023-05-19T09:55:58;6.25;;;2.40;;
47531;SDS011;33273;52.254;7.988;2023-05-19T09:58:29;5.15;;;2.15;;
47531;SDS011;33273;52.254;7.988;2023-05-19T10:00:59;8.43;;;2.22;;
47531;SDS011;33273;52.254;7.988;2023-05-19T10:03:26;6.80;;;2.08;;
47531;SDS011;33273;52.254;7.988;2023-05-19T10:05:55;6.03;;;1.80;;
47531;SDS011;33273;52.254;7.988;2023-05-19T10:08:21;7.03;;;2.45;;
47531;SDS011;33273;52.254;7.988;2023-05-19T10:10:48;7.45;;;2.42;;
47531;SDS011;33273;52.254;7.988;2023-05-19T10:13:14;5.18;;;2.88;;
47531;SDS011;33273;52.254;7.988;2023-05-19T10:15:40;4.80;;;2.00;;
47531;SDS011;33273;52.254;7.988;2023-05-19T10:18:08;5.60;;;2.10;;
47531;SDS011;33273;52.254;7.988;2023-05-19T10:20:35;4.85;;;2.30;;
47531;SDS011;33273;52.254;7.988;2023-05-19T10:23:04;5.10;;;2.55;;
47531;SDS011;33273;52.254;7.988;2023-05-19T10:25:33;5.70;;;2.42;;
47531;SDS011;33273;52.254;7.988;2023-05-19T10:28:08;5.35;;;2.10;;
47531;SDS011;33273;52.254;7.988;2023-05-19T10:30:40;7.45;;;2.33;;
47531;SDS011;33273;52.254;7.988;2023-05-19T10:33:12;5.63;;;2.35;;
47531;SDS011;33273;52.254;7.988;2023-05-19T10:35:46;5.25;;;1.88;;
47531;SDS011;33273;52.254;7.988;2023-05-19T10:39:28;5.97;;;2.08;;
47531;SDS011;33273;52.254;7.988;2023-05-19T10:41:47;4.70;;;2.30;;
47531;SDS011;33273;52.254;7.988;2023-05-19T10:47:13;6.40;;;1.90;;
47531;SDS011;33273;52.254;7.988;2023-05-19T10:49:38;9.20;;;2.63;;
47531;SDS011;33273;52.254;7.988;2023-05-19T10:52:24;6.07;;;2.28;;
47531;SDS011;33273;52.254;7.988;2023-05-19T10:54:50;3.67;;;1.88;;
47531;SDS011;33273;52.254;7.988;2023-05-19T10:57:27;6.05;;;2.10;;
47531;SDS011;33273;52.254;7.988;2023-05-19T10:59:56;4.88;;;1.77;;
47531;SDS011;33273;52.254;7.988;2023-05-19T11:05:13;5.32;;;2.20;;
47531;SDS011;33273;52.254;7.988;2023-05-19T11:07:55;5.72;;;2.08;;
47531;SDS011;33273;52.254;7.988;2023-05-19T11:10:32;6.88;;;2.35;;
47531;SDS011;33273;52.254;7.988;2023-05-19T11:13:00;5.93;;;2.00;;
47531;SDS011;33273;52.254;7.988;2023-05-19T11:15:26;10.48;;;2.72;;
47531;SDS011;33273;52.254;7.988;2023-05-19T11:17:52;4.60;;;2.03;;
47531;SDS011;33273;52.254;7.988;2023-05-19T11:20:23;4.70;;;2.45;;
47531;SDS011;33273;52.254;7.988;2023-05-19T11:25:43;6.25;;;2.22;;
47531;SDS011;33273;52.254;7.988;2023-05-19T11:28:11;6.90;;;2.35;;
47531;SDS011;33273;52.254;7.988;2023-05-19T11:30:41;4.13;;;2.05;;
47531;SDS011;33273;52.254;7.988;2023-05-19T11:33:09;5.03;;;2.40;;
47531;SDS011;33273;52.254;7.988;2023-05-19T11:35:35;3.97;;;1.90;;
47531;SDS011;33273;52.254;7.988;2023-05-19T11:38:01;6.30;;;2.40;;
47531;SDS011;33273;52.254;7.988;2023-05-19T11:40:27;10.18;;;2.25;;
47531;SDS011;33273;52.254;7.988;2023-05-19T11:42:54;5.35;;;1.92;;
47531;SDS011;33273;52.254;7.988;2023-05-19T11:45:24;8.10;;;2.38;;
47531;SDS011;33273;52.254;7.988;2023-05-19T11:47:50;3.95;;;1.80;;
47531;SDS011;33273;52.254;7.988;2023-05-19T11:50:16;3.72;;;2.03;;
47531;SDS011;33273;52.254;7.988;2023-05-19T11:52:43;6.93;;;2.33;;
47531;SDS011;33273;52.254;7.988;2023-05-19T11:55:09;5.68;;;2.15;;
47531;SDS011;33273;52.254;7.988;2023-05-19T11:57:40;5.18;;;1.80;;
47531;SDS011;33273;52.254;7.988;2023-05-19T12:00:06;5.65;;;1.73;;
47531;SDS011;33273;52.254;7.988;2023-05-19T12:02:33;5.25;;;2.42;;
47531;SDS011;33273;52.254;7.988;2023-05-19T12:05:00;4.05;;;2.10;;
47531;SDS011;33273;52.254;7.988;2023-05-19T12:07:26;3.97;;;1.67;;
47531;SDS011;33273;52.254;7.988;2023-05-19T12:09:53;3.78;;;1.88;;
47531;SDS011;33273;52.254;7.988;2023-05-19T12:12:21;4.65;;;1.92;;
47531;SDS011;33273;52.254;7.988;2023-05-19T12:14:48;4.53;;;2.05;;
47531;SDS011;33273;52.254;7.988;2023-05-19T12:17:16;4.82;;;1.92;;
47531;SDS011;33273;52.254;7.988;2023-05-19T12:19:46;3.50;;;1.88;;
47531;SDS011;33273;52.254;7.988;2023-05-19T12:22:16;3.88;;;2.17;;
47531;SDS011;33273;52.254;7.988;2023-05-19T12:24:44;4.25;;;1.67;;
47531;SDS011;33273;52.254;7.988;2023-05-19T12:29:41;5.03;;;1.98;;
47531;SDS011;33273;52.254;7.988;2023-05-19T12:32:07;4.90;;;1.85;;
47531;SDS011;33273;52.254;7.988;2023-05-19T12:34:37;5.68;;;1.95;;
47531;SDS011;33273;52.254;7.988;2023-05-19T12:37:03;5.57;;;2.20;;
47531;SDS011;33273;52.254;7.988;2023-05-19T12:39:30;4.25;;;1.90;;
47531;SDS011;33273;52.254;7.988;2023-05-19T12:42:00;4.60;;;2.05;;
47531;SDS011;33273;52.254;7.988;2023-05-19T12:44:27;3.70;;;1.73;;
47531;SDS011;33273;52.254;7.988;2023-05-19T12:46:55;4.78;;;1.83;;
47531;SDS011;33273;52.254;7.988;2023-05-19T12:49:22;4.70;;;1.85;;
47531;SDS011;33273;52.254;7.988;2023-05-19T12:51:52;7.75;;;2.08;;
47531;SDS011;33273;52.254;7.988;2023-05-19T12:54:21;4.20;;;1.85;;
47531;SDS011;33273;52.254;7.988;2023-05-19T12:56:50;4.95;;;1.80;;
47531;SDS011;33273;52.254;7.988;2023-05-19T12:59:20;6.05;;;1.75;;
47531;SDS011;33273;52.254;7.988;2023-05-19T13:01:55;4.05;;;1.65;;
47531;SDS011;33273;52.254;7.988;2023-05-19T13:04:22;5.32;;;1.73;;
47531;SDS011;33273;52.254;7.988;2023-05-19T13:06:52;6.57;;;1.80;;
47531;SDS011;33273;52.254;7.988;2023-05-19T13:09:18;6.18;;;2.05;;
47531;SDS011;33273;52.254;7.988;2023-05-19T13:11:45;4.15;;;1.73;;
47531;SDS011;33273;52.254;7.988;2023-05-19T13:14:18;3.42;;;1.80;;
47531;SDS011;33273;52.254;7.988;2023-05-19T13:16:45;3.25;;;1.60;;
47531;SDS011;33273;52.254;7.988;2023-05-19T13:19:16;5.72;;;1.70;;
47531;SDS011;33273;52.254;7.988;2023-05-19T13:21:43;4.95;;;1.77;;
47531;SDS011;33273;52.254;7.988;2023-05-19T13:24:11;3.92;;;1.80;;
47531;SDS011;33273;52.254;7.988;2023-05-19T13:29:04;5.50;;;1.73;;
47531;SDS011;33273;52.254;7.988;2023-05-19T13:31:30;5.40;;;1.67;;
47531;SDS011;33273;52.254;7.988;2023-05-19T13:33:56;4.80;;;1.92;;
47531;SDS011;33273;52.254;7.988;2023-05-19T13:36:23;3.55;;;1.60;;
47531;SDS011;33273;52.254;7.988;2023-05-19T13:38:51;5.95;;;2.42;;
47531;SDS011;33273;52.254;7.988;2023-05-19T13:41:24;5.70;;;1.48;;
47531;SDS011;33273;52.254;7.988;2023-05-19T13:43:50;7.40;;;1.90;;
47531;SDS011;33273;52.254;7.988;2023-05-19T13:46:17;4.93;;;1.95;;
47531;SDS011;33273;52.254;7.988;2023-05-19T13:51:09;4.30;;;1.55;;
47531;SDS011;33273;52.254;7.988;2023-05-19T13:53:36;5.57;;;1.80;;
47531;SDS011;33273;52.254;7.988;2023-05-19T13:56:03;4.88;;;1.90;;
47531;SDS011;33273;52.254;7.988;2023-05-19T13:58:29;4.80;;;2.00;;
47531;SDS011;33273;52.254;7.988;2023-05-19T14:00:55;6.22;;;2.00;;
47531;SDS011;33273;52.254;7.988;2023-05-19T14:03:23;4.47;;;1.75;;
47531;SDS011;33273;52.254;7.988;2023-05-19T14:05:51;2.45;;;1.30;;
47531;SDS011;33273;52.254;7.988;2023-05-19T14:08:17;3.95;;;1.98;;
47531;SDS011;33273;52.254;7.988;2023-05-19T14:10:46;3.35;;;1.90;;
47531;SDS011;33273;52.254;7.988;2023-05-19T14:13:12;3.03;;;1.95;;
47531;SDS011;33273;52.254;7.988;2023-05-19T14:15:38;5.63;;;2.47;;
47531;SDS011;33273;52.254;7.988;2023-05-19T14:18:06;4.30;;;2.65;;
47531;SDS011;33273;52.254;7.988;2023-05-19T14:20:32;6.45;;;2.58;;
47531;SDS011;33273;52.254;7.988;2023-05-19T14:22:58;6.43;;;2.45;;
47531;SDS011;33273;52.254;7.988;2023-05-19T14:25:24;3.83;;;1.93;;
47531;SDS011;33273;52.254;7.988;2023-05-19T14:27:49;4.85;;;2.20;;
47531;SDS011;33273;52.254;7.988;2023-05-19T14:30:15;3.40;;;1.70;;
47531;SDS011;33273;52.254;7.988;2023-05-19T14:32:42;3.92;;;1.60;;
47531;SDS011;33273;52.254;7.988;2023-05-19T14:35:08;6.22;;;2.15;;
47531;SDS011;33273;52.254;7.988;2023-05-19T14:37:34;4.22;;;1.88;;
47531;SDS011;33273;52.254;7.988;2023-05-19T14:40:00;5.28;;;1.70;;
47531;SDS011;33273;52.254;7.988;2023-05-19T14:42:26;5.87;;;1.90;;
47531;SDS011;33273;52.254;7.988;2023-05-19T14:44:52;3.10;;;1.87;;
47531;SDS011;33273;52.254;7.988;2023-05-19T14:47:18;3.78;;;1.70;;
47531;SDS011;33273;52.254;7.988;2023-05-19T14:49:43;4.03;;;1.65;;
47531;SDS011;33273;52.254;7.988;2023-05-19T14:52:09;4.97;;;1.80;;
47531;SDS011;33273;52.254;7.988;2023-05-19T14:54:35;6.78;;;2.05;;
47531;SDS011;33273;52.254;7.988;2023-05-19T14:57:01;4.72;;;1.90;;
47531;SDS011;33273;52.254;7.988;2023-05-19T14:59:27;4.93;;;2.05;;
47531;SDS011;33273;52.254;7.988;2023-05-19T15:01:53;4.60;;;1.90;;
47531;SDS011;33273;52.254;7.988;2023-05-19T15:04:20;4.13;;;1.80;;
47531;SDS011;33273;52.254;7.988;2023-05-19T15:06:47;5.18;;;2.20;;
47531;SDS011;33273;52.254;7.988;2023-05-19T15:09:13;4.00;;;1.90;;
47531;SDS011;33273;52.254;7.988;2023-05-19T15:11:39;4.80;;;1.70;;
47531;SDS011;33273;52.254;7.988;2023-05-19T15:14:05;3.90;;;2.17;;
47531;SDS011;33273;52.254;7.988;2023-05-19T15:16:30;7.67;;;2.67;;
47531;SDS011;33273;52.254;7.988;2023-05-19T15:18:56;8.48;;;2.50;;
47531;SDS011;33273;52.254;7.988;2023-05-19T15:21:22;5.28;;;1.77;;
47531;SDS011;33273;52.254;7.988;2023-05-19T15:23:48;7.65;;;2.45;;
47531;SDS011;33273;52.254;7.988;2023-05-19T15:26:14;5.60;;;2.13;;
47531;SDS011;33273;52.254;7.988;2023-05-19T15:28:40;2.78;;;1.63;;
47531;SDS011;33273;52.254;7.988;2023-05-19T15:31:06;5.95;;;1.73;;
47531;SDS011;33273;52.254;7.988;2023-05-19T15:33:31;3.53;;;2.23;;
47531;SDS011;33273;52.254;7.988;2023-05-19T15:35:57;6.57;;;2.20;;
47531;SDS011;33273;52.254;7.988;2023-05-19T15:38:23;7.70;;;2.00;;
47531;SDS011;33273;52.254;7.988;2023-05-19T15:40:49;2.92;;;1.73;;
47531;SDS011;33273;52.254;7.988;2023-05-19T15:43:15;4.68;;;2.03;;
47531;SDS011;33273;52.254;7.988;2023-05-19T15:45:41;4.68;;;1.70;;
47531;SDS011;33273;52.254;7.988;2023-05-19T15:48:07;5.15;;;2.33;;